AAL918 KSAN-KSFO
Flight info
| Callsign | AAL918 |
|---|---|
| Flight time | 1h 9m |
| Altitude | 36000 |
| Route | PADRZ2 IKAYE RIZIN SPLNT STOKD SERFR SERFR4 |
| Aircraft | A320/M-SDE3FGHIRWY/LB1 |
Departure
| Time | 2026-05-04 01:48 |
|---|---|
| Airport | San Diego International Airport (KSAN) |
Arrival
| Time | 2026-05-04 02:57 |
|---|---|
| Airport | San Francisco International Airport (KSFO) |
| Time | Latitude | Longitude | Altitude | Speed | Heading |
|---|---|---|---|---|---|
| 2026-05-04 00:59 | 32.73408 | -117.20116 | 25 ft | 0 kts | 165° |
| 2026-05-04 01:39 | 32.73424 | -117.20121 | 26 ft | 3 kts | 168° |
| 2026-05-04 01:39 | 32.73444 | -117.20126 | 26 ft | 3 kts | 171° |
| 2026-05-04 01:40 | 32.73464 | -117.20129 | 27 ft | 3 kts | 173° |
| 2026-05-04 01:40 | 32.73485 | -117.20132 | 27 ft | 3 kts | 174° |
| 2026-05-04 01:40 | 32.73505 | -117.20134 | 29 ft | 3 kts | 172° |
| 2026-05-04 01:40 | 32.73525 | -117.20139 | 27 ft | 3 kts | 157° |
| 2026-05-04 01:41 | 32.73538 | -117.20149 | 30 ft | 3 kts | 110° |
| 2026-05-04 01:41 | 32.73539 | -117.20151 | 30 ft | 0 kts | 106° |
| 2026-05-04 01:42 | 32.73538 | -117.20147 | 30 ft | 0 kts | 106° |
| 2026-05-04 01:43 | 32.73534 | -117.20129 | 26 ft | 5 kts | 106° |
| 2026-05-04 01:43 | 32.73518 | -117.20061 | 26 ft | 12 kts | 105° |
| 2026-05-04 01:43 | 32.73490 | -117.19946 | 29 ft | 16 kts | 106° |
| 2026-05-04 01:43 | 32.73454 | -117.19798 | 27 ft | 21 kts | 106° |
| 2026-05-04 01:44 | 32.73410 | -117.19616 | 26 ft | 23 kts | 106° |
| 2026-05-04 01:44 | 32.73368 | -117.19442 | 27 ft | 21 kts | 106° |
| 2026-05-04 01:44 | 32.73326 | -117.19268 | 25 ft | 21 kts | 106° |
| 2026-05-04 01:44 | 32.73288 | -117.19109 | 29 ft | 19 kts | 106° |
| 2026-05-04 01:45 | 32.73252 | -117.18963 | 26 ft | 18 kts | 106° |
| 2026-05-04 01:45 | 32.73212 | -117.18799 | 28 ft | 23 kts | 106° |
| 2026-05-04 01:45 | 32.73116 | -117.18401 | 31 ft | 25 kts | 106° |
| 2026-05-04 01:46 | 32.73062 | -117.18182 | 24 ft | 30 kts | 106° |
| 2026-05-04 01:46 | 32.73009 | -117.17959 | 24 ft | 26 kts | 105° |
| 2026-05-04 01:46 | 32.72956 | -117.17760 | 21 ft | 24 kts | 108° |
| 2026-05-04 01:46 | 32.72957 | -117.17670 | 23 ft | 4 kts | 73° |
| 2026-05-04 01:47 | 32.72964 | -117.17643 | 24 ft | 5 kts | 69° |
| 2026-05-04 01:47 | 32.73017 | -117.17613 | 28 ft | 17 kts | 335° |
| 2026-05-04 01:47 | 32.73042 | -117.17675 | 24 ft | 23 kts | 286° |
| 2026-05-04 01:47 | 32.73162 | -117.18169 | 27 ft | 95 kts | 286° |
| 2026-05-04 01:48 | 32.73405 | -117.19143 | 44 ft | 147 kts | 288° |
| 2026-05-04 01:48 | 32.73716 | -117.20295 | 637 ft | 149 kts | 287° |
| 2026-05-04 01:48 | 32.74216 | -117.21376 | 1336 ft | 150 kts | 302° |
| 2026-05-04 01:48 | 32.74797 | -117.22418 | 1933 ft | 156 kts | 301° |
| 2026-05-04 01:49 | 32.75437 | -117.23592 | 2267 ft | 178 kts | 300° |
| 2026-05-04 01:49 | 32.76141 | -117.24891 | 2572 ft | 201 kts | 301° |
| 2026-05-04 01:49 | 32.76943 | -117.26370 | 2905 ft | 225 kts | 301° |
| 2026-05-04 01:49 | 32.77837 | -117.28016 | 3361 ft | 247 kts | 301° |
| 2026-05-04 01:50 | 32.78788 | -117.29758 | 4120 ft | 254 kts | 301° |
| 2026-05-04 01:50 | 32.79757 | -117.31525 | 5016 ft | 258 kts | 302° |
| 2026-05-04 01:50 | 32.80807 | -117.33284 | 5863 ft | 263 kts | 304° |
| 2026-05-04 01:50 | 32.81930 | -117.35031 | 6687 ft | 268 kts | 304° |
| 2026-05-04 01:51 | 32.83088 | -117.36792 | 7483 ft | 273 kts | 304° |
| 2026-05-04 01:51 | 32.84265 | -117.38579 | 8284 ft | 277 kts | 304° |
| 2026-05-04 01:51 | 32.85456 | -117.40396 | 9105 ft | 281 kts | 303° |
| 2026-05-04 01:51 | 32.86661 | -117.42245 | 9914 ft | 285 kts | 303° |
| 2026-05-04 01:52 | 32.87892 | -117.44145 | 10404 ft | 300 kts | 303° |
| 2026-05-04 01:52 | 32.89206 | -117.46195 | 10671 ft | 321 kts | 303° |
| 2026-05-04 01:52 | 32.90581 | -117.48343 | 11274 ft | 329 kts | 303° |
| 2026-05-04 01:52 | 32.91980 | -117.50517 | 12004 ft | 333 kts | 303° |
| 2026-05-04 01:53 | 32.93397 | -117.52714 | 12749 ft | 336 kts | 303° |
| 2026-05-04 01:53 | 32.94826 | -117.54931 | 13490 ft | 339 kts | 303° |
| 2026-05-04 01:53 | 32.96266 | -117.57170 | 14171 ft | 342 kts | 302° |
| 2026-05-04 01:53 | 32.97715 | -117.59425 | 14851 ft | 344 kts | 302° |
| 2026-05-04 01:54 | 32.99164 | -117.61690 | 15552 ft | 344 kts | 301° |
| 2026-05-04 01:54 | 33.00619 | -117.63960 | 16284 ft | 345 kts | 301° |
| 2026-05-04 01:54 | 33.02077 | -117.66238 | 16972 ft | 346 kts | 300° |
| 2026-05-04 01:54 | 33.03538 | -117.68521 | 17664 ft | 347 kts | 299° |
| 2026-05-04 01:55 | 33.04999 | -117.70810 | 18348 ft | 347 kts | 299° |
| 2026-05-04 01:55 | 33.06543 | -117.73049 | 18922 ft | 355 kts | 306° |
| 2026-05-04 01:55 | 33.08405 | -117.75030 | 19486 ft | 361 kts | 310° |
| 2026-05-04 01:55 | 33.10324 | -117.76975 | 20062 ft | 363 kts | 310° |
| 2026-05-04 01:56 | 33.12255 | -117.78931 | 20630 ft | 365 kts | 310° |
| 2026-05-04 01:56 | 33.14191 | -117.80898 | 21192 ft | 366 kts | 310° |
| 2026-05-04 01:56 | 33.16132 | -117.82875 | 21758 ft | 368 kts | 310° |
| 2026-05-04 01:56 | 33.18087 | -117.84868 | 22311 ft | 370 kts | 310° |
| 2026-05-04 01:57 | 33.20032 | -117.86886 | 22885 ft | 371 kts | 308° |
| 2026-05-04 01:57 | 33.21914 | -117.89000 | 23421 ft | 371 kts | 306° |
| 2026-05-04 01:57 | 33.23742 | -117.91172 | 23893 ft | 372 kts | 305° |
| 2026-05-04 01:57 | 33.25552 | -117.93384 | 24341 ft | 372 kts | 304° |
| 2026-05-04 01:58 | 33.27358 | -117.95608 | 24805 ft | 373 kts | 304° |
| 2026-05-04 01:58 | 33.29170 | -117.97824 | 25257 ft | 374 kts | 304° |
| 2026-05-04 01:58 | 33.30998 | -118.00039 | 25690 ft | 375 kts | 304° |
| 2026-05-04 01:58 | 33.32842 | -118.02252 | 26133 ft | 376 kts | 304° |
| 2026-05-04 01:59 | 33.34693 | -118.04460 | 26556 ft | 376 kts | 304° |
| 2026-05-04 01:59 | 33.36549 | -118.06673 | 26993 ft | 377 kts | 304° |
| 2026-05-04 01:59 | 33.38406 | -118.08892 | 27410 ft | 378 kts | 304° |
| 2026-05-04 01:59 | 33.40270 | -118.11127 | 27772 ft | 380 kts | 303° |
| 2026-05-04 02:00 | 33.42139 | -118.13372 | 28164 ft | 382 kts | 303° |
| 2026-05-04 02:00 | 33.43992 | -118.15598 | 28542 ft | 383 kts | 303° |
| 2026-05-04 02:00 | 33.45878 | -118.17857 | 28907 ft | 384 kts | 303° |
| 2026-05-04 02:00 | 33.47769 | -118.20121 | 29280 ft | 385 kts | 303° |
| 2026-05-04 02:01 | 33.49688 | -118.22422 | 29649 ft | 386 kts | 303° |
| 2026-05-04 02:01 | 33.51562 | -118.24677 | 29999 ft | 387 kts | 303° |
| 2026-05-04 02:01 | 33.53463 | -118.26967 | 30295 ft | 388 kts | 302° |
| 2026-05-04 02:01 | 33.55393 | -118.29296 | 30581 ft | 389 kts | 302° |
| 2026-05-04 02:02 | 33.57278 | -118.31573 | 30861 ft | 391 kts | 302° |
| 2026-05-04 02:02 | 33.59193 | -118.33886 | 31110 ft | 391 kts | 302° |
| 2026-05-04 02:02 | 33.61113 | -118.36204 | 31379 ft | 392 kts | 302° |
| 2026-05-04 02:02 | 33.63031 | -118.38515 | 31772 ft | 389 kts | 302° |
| 2026-05-04 02:03 | 33.64931 | -118.40802 | 32187 ft | 386 kts | 301° |
| 2026-05-04 02:03 | 33.66817 | -118.43074 | 32611 ft | 382 kts | 301° |
| 2026-05-04 02:03 | 33.68680 | -118.45322 | 33034 ft | 378 kts | 300° |
| 2026-05-04 02:03 | 33.70524 | -118.47549 | 33462 ft | 374 kts | 300° |
| 2026-05-04 02:04 | 33.72348 | -118.49757 | 33895 ft | 370 kts | 300° |
| 2026-05-04 02:04 | 33.74152 | -118.51943 | 34306 ft | 367 kts | 299° |
| 2026-05-04 02:04 | 33.75939 | -118.54111 | 34638 ft | 364 kts | 299° |
| 2026-05-04 02:04 | 33.77718 | -118.56274 | 34908 ft | 363 kts | 298° |
| 2026-05-04 02:05 | 33.79491 | -118.58429 | 35152 ft | 363 kts | 298° |
| 2026-05-04 02:05 | 33.81262 | -118.60583 | 35390 ft | 362 kts | 298° |
| 2026-05-04 02:05 | 33.83029 | -118.62737 | 35617 ft | 361 kts | 298° |
| 2026-05-04 02:05 | 33.84794 | -118.64894 | 35835 ft | 361 kts | 298° |
| 2026-05-04 02:06 | 33.86557 | -118.67049 | 35995 ft | 361 kts | 297° |
| 2026-05-04 02:06 | 33.88313 | -118.69188 | 36017 ft | 358 kts | 298° |
| 2026-05-04 02:06 | 33.91801 | -118.73437 | 36047 ft | 356 kts | 297° |
| 2026-05-04 02:07 | 33.95274 | -118.77680 | 36011 ft | 356 kts | 297° |
| 2026-05-04 02:07 | 33.98747 | -118.81929 | 36015 ft | 356 kts | 297° |
| 2026-05-04 02:08 | 34.02218 | -118.86174 | 36019 ft | 356 kts | 297° |
| 2026-05-04 02:08 | 34.05686 | -118.90426 | 36017 ft | 356 kts | 297° |
| 2026-05-04 02:09 | 34.09158 | -118.94687 | 36043 ft | 355 kts | 297° |
| 2026-05-04 02:09 | 34.12619 | -118.98943 | 36023 ft | 356 kts | 297° |
| 2026-05-04 02:10 | 34.15597 | -119.03492 | 36024 ft | 336 kts | 287° |
| 2026-05-04 02:10 | 34.18063 | -119.08292 | 36008 ft | 337 kts | 287° |
| 2026-05-04 02:11 | 34.20543 | -119.13104 | 36009 ft | 338 kts | 287° |
| 2026-05-04 02:11 | 34.23026 | -119.17919 | 36008 ft | 338 kts | 287° |
| 2026-05-04 02:12 | 34.25505 | -119.22742 | 36028 ft | 338 kts | 288° |
| 2026-05-04 02:12 | 34.27993 | -119.27589 | 36021 ft | 340 kts | 287° |
| 2026-05-04 02:13 | 34.30494 | -119.32460 | 36007 ft | 342 kts | 289° |
| 2026-05-04 02:13 | 34.33004 | -119.37351 | 36007 ft | 343 kts | 288° |
| 2026-05-04 02:14 | 34.35512 | -119.42255 | 35994 ft | 343 kts | 288° |
| 2026-05-04 02:14 | 34.38018 | -119.47174 | 35994 ft | 344 kts | 287° |
| 2026-05-04 02:15 | 34.40530 | -119.52100 | 36001 ft | 346 kts | 289° |
| 2026-05-04 02:15 | 34.42037 | -119.54413 | 36006 ft | 365 kts | 298° |
| 2026-05-04 02:15 | 34.43831 | -119.56614 | 35998 ft | 368 kts | 299° |
| 2026-05-04 02:16 | 34.47443 | -119.61030 | 35979 ft | 370 kts | 299° |
| 2026-05-04 02:16 | 34.51062 | -119.65470 | 35986 ft | 371 kts | 299° |
| 2026-05-04 02:17 | 34.54678 | -119.69929 | 35984 ft | 371 kts | 298° |
| 2026-05-04 02:17 | 34.58288 | -119.74374 | 35997 ft | 370 kts | 298° |
| 2026-05-04 02:18 | 34.61899 | -119.78836 | 35993 ft | 370 kts | 298° |
| 2026-05-04 02:18 | 34.65510 | -119.83306 | 36016 ft | 371 kts | 298° |
| 2026-05-04 02:19 | 34.69123 | -119.87784 | 36005 ft | 371 kts | 298° |
| 2026-05-04 02:19 | 34.72741 | -119.92269 | 35993 ft | 371 kts | 298° |
| 2026-05-04 02:20 | 34.76355 | -119.96756 | 36003 ft | 373 kts | 300° |
| 2026-05-04 02:20 | 34.79374 | -120.00514 | 35991 ft | 375 kts | 300° |
| 2026-05-04 02:21 | 34.83028 | -120.05070 | 35993 ft | 378 kts | 300° |
| 2026-05-04 02:21 | 34.86712 | -120.09650 | 35996 ft | 379 kts | 300° |
| 2026-05-04 02:22 | 34.90395 | -120.14237 | 36057 ft | 378 kts | 300° |
| 2026-05-04 02:22 | 34.94094 | -120.18877 | 36030 ft | 385 kts | 301° |
| 2026-05-04 02:23 | 34.97839 | -120.23574 | 36041 ft | 387 kts | 301° |
| 2026-05-04 02:23 | 35.01596 | -120.28269 | 36028 ft | 387 kts | 301° |
| 2026-05-04 02:24 | 35.05346 | -120.32975 | 36035 ft | 386 kts | 301° |
| 2026-05-04 02:24 | 35.09094 | -120.37684 | 36048 ft | 388 kts | 302° |
| 2026-05-04 02:25 | 35.13055 | -120.42255 | 36037 ft | 394 kts | 305° |
| 2026-05-04 02:25 | 35.17161 | -120.46731 | 36031 ft | 395 kts | 306° |
| 2026-05-04 02:26 | 35.21257 | -120.51239 | 36027 ft | 396 kts | 304° |
| 2026-05-04 02:26 | 35.25314 | -120.55786 | 36057 ft | 396 kts | 305° |
| 2026-05-04 02:27 | 35.29359 | -120.60360 | 36050 ft | 396 kts | 305° |
| 2026-05-04 02:27 | 35.33419 | -120.64938 | 36047 ft | 396 kts | 305° |
| 2026-05-04 02:28 | 35.37473 | -120.69510 | 36040 ft | 396 kts | 305° |
| 2026-05-04 02:28 | 35.41530 | -120.74098 | 36059 ft | 397 kts | 305° |
| 2026-05-04 02:29 | 35.45584 | -120.78684 | 36044 ft | 396 kts | 305° |
| 2026-05-04 02:29 | 35.49740 | -120.83123 | 36046 ft | 405 kts | 310° |
| 2026-05-04 02:30 | 35.54235 | -120.87291 | 36038 ft | 405 kts | 310° |
| 2026-05-04 02:30 | 35.58737 | -120.91454 | 36064 ft | 405 kts | 310° |
| 2026-05-04 02:31 | 35.63236 | -120.95633 | 36049 ft | 405 kts | 310° |
| 2026-05-04 02:31 | 35.67723 | -120.99819 | 36030 ft | 405 kts | 310° |
| 2026-05-04 02:32 | 35.72233 | -121.04019 | 36034 ft | 407 kts | 310° |
| 2026-05-04 02:32 | 35.76743 | -121.08218 | 36028 ft | 407 kts | 310° |
| 2026-05-04 02:33 | 35.81261 | -121.12444 | 35892 ft | 409 kts | 310° |
| 2026-05-04 02:33 | 35.83518 | -121.14555 | 35657 ft | 406 kts | 310° |
| 2026-05-04 02:33 | 35.85766 | -121.16655 | 35422 ft | 404 kts | 309° |
| 2026-05-04 02:34 | 35.88000 | -121.18744 | 35140 ft | 400 kts | 309° |
| 2026-05-04 02:34 | 35.90201 | -121.20805 | 34689 ft | 396 kts | 309° |
| 2026-05-04 02:34 | 35.92392 | -121.22858 | 34225 ft | 394 kts | 308° |
| 2026-05-04 02:34 | 35.94572 | -121.24902 | 33707 ft | 392 kts | 308° |
| 2026-05-04 02:35 | 35.96730 | -121.26930 | 33224 ft | 389 kts | 308° |
| 2026-05-04 02:35 | 35.98871 | -121.28945 | 32762 ft | 385 kts | 308° |
| 2026-05-04 02:35 | 36.00988 | -121.30937 | 32310 ft | 381 kts | 308° |
| 2026-05-04 02:35 | 36.03087 | -121.32911 | 31861 ft | 377 kts | 308° |
| 2026-05-04 02:36 | 36.05163 | -121.34872 | 31434 ft | 373 kts | 308° |
| 2026-05-04 02:36 | 36.07248 | -121.36777 | 31011 ft | 375 kts | 313° |
| 2026-05-04 02:36 | 36.09458 | -121.38507 | 30578 ft | 376 kts | 315° |
| 2026-05-04 02:36 | 36.11665 | -121.40221 | 30167 ft | 374 kts | 316° |
| 2026-05-04 02:37 | 36.13864 | -121.41925 | 29722 ft | 371 kts | 316° |
| 2026-05-04 02:37 | 36.16037 | -121.43612 | 29312 ft | 367 kts | 316° |
| 2026-05-04 02:37 | 36.18184 | -121.45286 | 28920 ft | 363 kts | 317° |
| 2026-05-04 02:37 | 36.20372 | -121.47018 | 28541 ft | 385 kts | 317° |
| 2026-05-04 02:38 | 36.22666 | -121.48848 | 28136 ft | 397 kts | 318° |
| 2026-05-04 02:38 | 36.25012 | -121.50707 | 27702 ft | 404 kts | 319° |
| 2026-05-04 02:38 | 36.27391 | -121.52574 | 27269 ft | 407 kts | 320° |
| 2026-05-04 02:38 | 36.29795 | -121.54443 | 26804 ft | 408 kts | 321° |
| 2026-05-04 02:39 | 36.32202 | -121.56307 | 26347 ft | 407 kts | 322° |
| 2026-05-04 02:39 | 36.34597 | -121.58169 | 25886 ft | 406 kts | 322° |
| 2026-05-04 02:39 | 36.36983 | -121.60032 | 25411 ft | 404 kts | 322° |
| 2026-05-04 02:39 | 36.39350 | -121.61889 | 24935 ft | 402 kts | 323° |
| 2026-05-04 02:40 | 36.41704 | -121.63744 | 24452 ft | 400 kts | 324° |
| 2026-05-04 02:40 | 36.44058 | -121.65600 | 23959 ft | 401 kts | 326° |
| 2026-05-04 02:40 | 36.46412 | -121.67454 | 23442 ft | 400 kts | 326° |
| 2026-05-04 02:40 | 36.48756 | -121.69300 | 22920 ft | 398 kts | 326° |
| 2026-05-04 02:41 | 36.51091 | -121.71142 | 22431 ft | 396 kts | 326° |
| 2026-05-04 02:41 | 36.53408 | -121.72974 | 21970 ft | 394 kts | 326° |
| 2026-05-04 02:41 | 36.55713 | -121.74794 | 21510 ft | 392 kts | 326° |
| 2026-05-04 02:41 | 36.58007 | -121.76607 | 21031 ft | 390 kts | 326° |
| 2026-05-04 02:42 | 36.60290 | -121.78414 | 20568 ft | 387 kts | 327° |
| 2026-05-04 02:42 | 36.62555 | -121.80206 | 20125 ft | 385 kts | 326° |
| 2026-05-04 02:42 | 36.64809 | -121.81991 | 19669 ft | 383 kts | 326° |
| 2026-05-04 02:42 | 36.67048 | -121.83770 | 19220 ft | 380 kts | 326° |
| 2026-05-04 02:43 | 36.69269 | -121.85537 | 18778 ft | 378 kts | 326° |
| 2026-05-04 02:43 | 36.71483 | -121.87295 | 18338 ft | 376 kts | 326° |
| 2026-05-04 02:43 | 36.73750 | -121.88905 | 17870 ft | 375 kts | 334° |
| 2026-05-04 02:43 | 36.76197 | -121.89985 | 17462 ft | 373 kts | 345° |
| 2026-05-04 02:44 | 36.78719 | -121.90688 | 17028 ft | 371 kts | 347° |
| 2026-05-04 02:44 | 36.81231 | -121.91386 | 16609 ft | 369 kts | 347° |
| 2026-05-04 02:44 | 36.83727 | -121.92087 | 16195 ft | 366 kts | 347° |
| 2026-05-04 02:44 | 36.86207 | -121.92784 | 15774 ft | 364 kts | 347° |
| 2026-05-04 02:45 | 36.88674 | -121.93477 | 15367 ft | 362 kts | 347° |
| 2026-05-04 02:45 | 36.91123 | -121.94162 | 14963 ft | 360 kts | 347° |
| 2026-05-04 02:45 | 36.93566 | -121.94845 | 14544 ft | 358 kts | 347° |
| 2026-05-04 02:45 | 36.95984 | -121.95555 | 14136 ft | 356 kts | 345° |
| 2026-05-04 02:46 | 36.98362 | -121.96393 | 13866 ft | 350 kts | 342° |
| 2026-05-04 02:46 | 37.00648 | -121.97287 | 13733 ft | 339 kts | 341° |
| 2026-05-04 02:46 | 37.02850 | -121.98187 | 13588 ft | 329 kts | 341° |
| 2026-05-04 02:46 | 37.05002 | -121.99072 | 13322 ft | 323 kts | 341° |
| 2026-05-04 02:47 | 37.07133 | -121.99938 | 12957 ft | 321 kts | 341° |
| 2026-05-04 02:47 | 37.09247 | -122.00784 | 12421 ft | 317 kts | 342° |
| 2026-05-04 02:47 | 37.11343 | -122.01610 | 11735 ft | 315 kts | 342° |
| 2026-05-04 02:47 | 37.13428 | -122.02427 | 11098 ft | 312 kts | 342° |
| 2026-05-04 02:48 | 37.15480 | -122.03228 | 10599 ft | 305 kts | 343° |
| 2026-05-04 02:48 | 37.17468 | -122.04003 | 10219 ft | 294 kts | 342° |
| 2026-05-04 02:48 | 37.19391 | -122.04753 | 9842 ft | 284 kts | 342° |
| 2026-05-04 02:48 | 37.21261 | -122.05485 | 9450 ft | 281 kts | 343° |
| 2026-05-04 02:49 | 37.23125 | -122.06215 | 9071 ft | 281 kts | 343° |
| 2026-05-04 02:49 | 37.24984 | -122.06946 | 8693 ft | 280 kts | 343° |
| 2026-05-04 02:49 | 37.26841 | -122.07676 | 8317 ft | 280 kts | 342° |
| 2026-05-04 02:49 | 37.28700 | -122.08404 | 7926 ft | 280 kts | 343° |
| 2026-05-04 02:50 | 37.30556 | -122.09132 | 7530 ft | 280 kts | 343° |
| 2026-05-04 02:50 | 37.32413 | -122.09865 | 7129 ft | 280 kts | 343° |
| 2026-05-04 02:50 | 37.34265 | -122.10598 | 6725 ft | 280 kts | 343° |
| 2026-05-04 02:50 | 37.36121 | -122.11334 | 6313 ft | 280 kts | 343° |
| 2026-05-04 02:51 | 37.37979 | -122.12065 | 5889 ft | 279 kts | 344° |
| 2026-05-04 02:51 | 37.39822 | -122.12732 | 5581 ft | 274 kts | 345° |
| 2026-05-04 02:51 | 37.41649 | -122.13352 | 5259 ft | 269 kts | 345° |
| 2026-05-04 02:51 | 37.43443 | -122.13952 | 4940 ft | 265 kts | 345° |
| 2026-05-04 02:52 | 37.45217 | -122.14544 | 4616 ft | 261 kts | 345° |
| 2026-05-04 02:52 | 37.46956 | -122.15114 | 4301 ft | 256 kts | 344° |
| 2026-05-04 02:52 | 37.48667 | -122.15669 | 3988 ft | 253 kts | 343° |
| 2026-05-04 02:52 | 37.50359 | -122.16221 | 3685 ft | 249 kts | 343° |
| 2026-05-04 02:53 | 37.52008 | -122.16785 | 3432 ft | 241 kts | 337° |
| 2026-05-04 02:53 | 37.53425 | -122.17784 | 3226 ft | 229 kts | 317° |
| 2026-05-04 02:53 | 37.54427 | -122.19272 | 2956 ft | 220 kts | 296° |
| 2026-05-04 02:53 | 37.55145 | -122.20959 | 2670 ft | 217 kts | 294° |
| 2026-05-04 02:54 | 37.55845 | -122.22625 | 2377 ft | 214 kts | 294° |
| 2026-05-04 02:54 | 37.56538 | -122.24269 | 2089 ft | 211 kts | 295° |
| 2026-05-04 02:54 | 37.57224 | -122.25898 | 1805 ft | 209 kts | 295° |
| 2026-05-04 02:54 | 37.57898 | -122.27496 | 1518 ft | 202 kts | 295° |
| 2026-05-04 02:55 | 37.59129 | -122.30418 | 996 ft | 174 kts | 295° |
| 2026-05-04 02:55 | 37.59664 | -122.31688 | 784 ft | 153 kts | 292° |
| 2026-05-04 02:55 | 37.60145 | -122.32812 | 560 ft | 139 kts | 294° |
| 2026-05-04 02:56 | 37.60578 | -122.33870 | 330 ft | 132 kts | 292° |
| 2026-05-04 02:56 | 37.61005 | -122.34881 | 210 ft | 129 kts | 292° |
| 2026-05-04 02:56 | 37.61421 | -122.35883 | 51 ft | 129 kts | 289° |
| 2026-05-04 02:56 | 37.61815 | -122.36834 | 17 ft | 106 kts | 298° |
| 2026-05-04 02:57 | 37.62084 | -122.37455 | 17 ft | 55 kts | 298° |
| 2026-05-04 02:57 | 37.62193 | -122.37812 | 20 ft | 35 kts | 279° |
| 2026-05-04 02:57 | 37.62216 | -122.38001 | 24 ft | 6 kts | 279° |
| 2026-05-04 02:57 | 37.62223 | -122.38049 | 24 ft | 5 kts | 278° |
| 2026-05-04 02:58 | 37.62227 | -122.38091 | 27 ft | 5 kts | 276° |
| 2026-05-04 02:58 | 37.62230 | -122.38158 | 23 ft | 11 kts | 268° |
| 2026-05-04 02:58 | 37.62223 | -122.38273 | 21 ft | 16 kts | 269° |
| 2026-05-04 02:58 | 37.62220 | -122.38435 | 20 ft | 17 kts | 265° |
| 2026-05-04 02:59 | 37.62217 | -122.38481 | 20 ft | 2 kts | 266° |
| 2026-05-04 02:59 | 37.62216 | -122.38521 | 20 ft | 7 kts | 268° |